LiveATC.Net - Listen to live air traffic control over the Internet!


ICAO: SSBL  IATA:   Airport: Blumenau Airport
City: Blumenau
Country: Brazil   Continent: South America
SBNF METAR Weather: SBNF 251700Z 05016KT 9999 FEW025 27/22 Q1015
SSBL Flight Activity (FlightAware)

SSBL Air to Air
Feed Status: DOWN
Last heard on: 2020-11-25 06:48:22 (0 days 10 hours 43 minutes ago)
Archive Access: SSBL Air to Air
FacilityFrequency
Air to Air123.450

NOTICE

Unauthorized use prohibited. See LiveATC.net Terms of Service


Airport/ARTCC Code
Frequency Search
(e.g., 124.400, 128.75)
Site-wide search
 


Browse Feeds
Top 50 Feeds
Coverage Map
Bad Weather Areas

LiveATC FAQ
Offer LiveATC feed
Contact LiveATC.net
Press Inquiries

LiveATC on iPhone
LiveATC on Android

Windows Phone
Windows 8/10

LiveATC Mobile
(Mobile browser)

ATC Audio Archives
Interesting Recordings

LiveATC Forums


Home Page
About LiveATC.net
Make a Donation
Terms of Use
Privacy Policy

Canadian Air Freqs

AIRMETs/SIGMETs

FAA Airport Status
Nat'l Airspace Status
Arrival Demand Charts


Server Software By:
Icecast.org
Liquidsoap